Jeff, Indiana
Current Conditions -  °F | °C
As of 12:53 AM on Friday 19 Dec 2014 (Local Time) from KLOU Reporting Station
Overcast Overcast  
Wind Chill: 25°   Ceiling: 7500
Heat Index: 31°   Visibility: 10mi
Dew Point: 23°   Wind: 6mph
Humidity: 72%   Direction: 360°N
Pressure: 30.26"   Gusts: NA
Location:  38.3141°N, 85.7691°W
Report Text: KLOU 190553Z AUTO 36005KT 10SM OVC075 M01/M05 A3026 RMK AO2 SLP252 T10061050 10000 21006 50002
Loading
Personal Weather Stations






























Interactive Weather Map New forecast layout! Learn more

10-Day Weather Forecast

Advertisements
Track Severe Weather on mobile